Time;durP1;ratioP1;P1;durP2;ratioP2;P2;SDS_P1;SDS_P2;PMS_P1;PMS_P2;Temp;Humidity;BMP_temperature;BMP_pressure;BME280_temperature;BME280_humidity;BME280_pressure;Samples;Min_cycle;Max_cycle;Signal;HPM_P1;HPM_P2
2022/02/14 00:01:28;;;;;;;17.80;7.40;;;;;-0.90;98269.20;;;;110665;1253;41265;-59
2022/02/14 00:03:58;;;;;;;14.80;7.00;;;;;-0.90;98262.00;;;;110509;1253;41846;-59
2022/02/14 00:06:28;;;;;;;20.40;7.10;;;;;-0.90;98262.20;;;;110382;1254;41269;-59
2022/02/14 00:08:57;;;;;;;16.20;7.10;;;;;-0.94;98258.80;;;;110675;1252;41162;-60
2022/02/14 00:11:26;;;;;;;14.80;6.70;;;;;-1.00;98260.20;;;;110711;1250;41173;-60
2022/02/14 00:13:56;;;;;;;17.10;6.60;;;;;-1.00;98258.40;;;;110660;1251;41940;-58
2022/02/14 00:16:25;;;;;;;17.20;6.60;;;;;-1.00;98256.80;;;;110578;1253;41258;-60
2022/02/14 00:18:55;;;;;;;18.50;6.70;;;;;-1.00;98252.60;;;;110784;1250;41376;-58
2022/02/14 00:21:25;;;;;;;16.90;6.80;;;;;-1.00;98252.00;;;;110771;1251;41143;-64
2022/02/14 00:23:54;;;;;;;16.00;7.20;;;;;-1.00;98248.60;;;;110747;1253;41169;-59
2022/02/14 00:26:24;;;;;;;17.50;7.40;;;;;-1.00;98252.60;;;;110369;1253;41257;-58
2022/02/14 00:28:53;;;;;;;16.50;7.20;;;;;-1.00;98245.60;;;;110545;1253;41742;-59
2022/02/14 00:31:23;;;;;;;18.00;8.30;;;;;-1.00;98248.40;;;;110773;1251;42647;-57
2022/02/14 00:33:53;;;;;;;16.00;7.60;;;;;-1.00;98246.80;;;;110777;1253;41160;-60
2022/02/14 00:36:23;;;;;;;17.40;8.20;;;;;-1.00;98249.40;;;;110647;1253;41261;-59
2022/02/14 00:38:53;;;;;;;19.70;8.10;;;;;-1.00;98244.20;;;;110469;1253;41736;-59
2022/02/14 00:41:23;;;;;;;16.90;7.40;;;;;-1.00;98240.80;;;;110539;1253;41606;-59
2022/02/14 00:43:53;;;;;;;16.20;7.40;;;;;-1.00;98234.00;;;;110616;1251;41176;-63
2022/02/14 00:46:23;;;;;;;16.90;7.20;;;;;-1.00;98229.20;;;;110540;1253;42078;-63
2022/02/14 00:48:53;;;;;;;15.90;7.00;;;;;-1.00;98223.20;;;;110545;1253;41270;-61
2022/02/14 00:51:23;;;;;;;17.50;7.80;;;;;-1.00;98221.80;;;;110623;1253;41128;-63
2022/02/14 00:53:53;;;;;;;17.80;8.10;;;;;-1.10;98218.80;;;;110723;1253;41144;-62
2022/02/14 00:56:24;;;;;;;17.20;7.80;;;;;-1.10;98218.60;;;;110602;1253;41536;-59
2022/02/14 00:58:55;;;;;;;19.80;8.60;;;;;-1.10;98215.80;;;;110735;1252;41277;-59
2022/02/14 01:01:28;;;;;;;21.40;8.90;;;;;-1.10;98214.20;;;;110774;1253;41135;-58
2022/02/14 01:03:58;;;;;;;21.70;8.80;;;;;-1.10;98214.00;;;;110641;1253;41256;-60
2022/02/14 01:06:30;;;;;;;20.00;8.70;;;;;-1.10;98208.40;;;;110779;1250;41459;-60
2022/02/14 01:09:00;;;;;;;19.40;9.40;;;;;-1.18;98206.80;;;;110773;1253;41216;-60
2022/02/14 01:11:31;;;;;;;22.30;10.50;;;;;-1.20;98204.40;;;;110739;1253;41375;-59
2022/02/14 01:14:01;;;;;;;22.10;10.20;;;;;-1.20;98203.00;;;;110594;1252;41186;-63
2022/02/14 01:16:31;;;;;;;19.20;9.90;;;;;-1.20;98197.80;;;;110775;1253;41158;-60
2022/02/14 01:19:02;;;;;;;20.90;10.10;;;;;-1.26;98198.40;;;;110774;1251;41825;-63
2022/02/14 01:21:31;;;;;;;22.00;10.20;;;;;-1.30;98192.20;;;;110707;1250;41143;-63
2022/02/14 01:24:02;;;;;;;18.90;8.80;;;;;-1.30;98186.40;;;;110594;1253;41157;-61
2022/02/14 01:26:32;;;;;;;;;;;;;-1.30;98185.60;;;;110635;1253;42514;-62
2022/02/14 01:29:03;;;;;;;22.40;9.10;;;;;-1.32;98187.80;;;;110567;1253;41719;-62
2022/02/14 01:31:34;;;;;;;16.50;8.10;;;;;-1.40;98179.40;;;;110636;1251;41154;-64
2022/02/14 01:34:04;;;;;;;;;;;;;-1.40;98182.20;;;;110644;1253;42459;-60
2022/02/14 01:36:35;;;;;;;17.10;8.10;;;;;-1.40;98180.40;;;;110624;1252;41226;-59
2022/02/14 01:39:06;;;;;;;20.80;8.90;;;;;-1.42;98180.60;;;;110577;1253;41700;-61
2022/02/14 01:41:37;;;;;;;20.50;9.60;;;;;-1.50;98182.20;;;;110608;1251;41170;-57
2022/02/14 01:44:12;;;;;;;22.50;10.80;;;;;-1.50;98179.40;;;;110624;1253;41264;-59
2022/02/14 01:46:42;;;;;;;25.70;10.70;;;;;-1.50;98175.80;;;;110762;1251;41157;-59
2022/02/14 01:49:13;;;;;;;25.20;11.30;;;;;-1.60;98177.60;;;;110693;1253;41140;-62
2022/02/14 01:51:43;;;;;;;25.80;11.10;;;;;-1.62;98176.00;;;;110735;1251;42615;-59
2022/02/14 01:54:14;;;;;;;24.10;10.50;;;;;-1.70;98173.80;;;;110771;1253;41627;-59
2022/02/14 01:56:44;;;;;;;27.30;10.80;;;;;-1.70;98173.80;;;;110684;1252;41359;-59
2022/02/14 01:59:15;;;;;;;25.20;10.00;;;;;-1.80;98170.20;;;;110599;1253;41391;-60
2022/02/14 02:01:46;;;;;;;21.50;9.40;;;;;-1.80;98167.20;;;;110666;1253;41458;-60
2022/02/14 02:04:17;;;;;;;20.70;9.70;;;;;-1.80;98163.00;;;;110614;1253;41169;-58
2022/02/14 02:06:47;;;;;;;18.00;8.90;;;;;-1.90;98162.40;;;;110662;1251;41801;-59
2022/02/14 02:09:18;;;;;;;24.40;9.30;;;;;-1.90;98161.00;;;;110745;1253;41540;-67
2022/02/14 02:14:37;;;;;;;20.10;9.20;;;;;-2.00;98165.00;;;;110541;1254;41452;-59
2022/02/14 02:17:10;;;;;;;20.20;9.90;;;;;-2.00;98170.80;;;;110607;1253;41387;-65
2022/02/14 02:19:39;;;;;;;23.00;9.80;;;;;-2.10;98164.80;;;;110539;1253;42085;-64
2022/02/14 02:22:11;;;;;;;18.40;9.00;;;;;-2.10;98158.60;;;;110592;1251;41165;-60
2022/02/14 02:24:46;;;;;;;18.20;8.10;;;;;-2.16;98161.20;;;;110745;1251;41248;-59
2022/02/14 02:27:17;;;;;;;18.70;8.40;;;;;-2.20;98161.80;;;;110625;1253;41549;-62
2022/02/14 02:29:49;;;;;;;20.00;8.10;;;;;-2.20;98160.40;;;;110808;1250;41849;-63
2022/02/14 02:32:19;;;;;;;17.70;7.40;;;;;-2.20;98161.60;;;;110608;1254;41261;-60
2022/02/14 02:34:50;;;;;;;14.00;6.50;;;;;-2.26;98155.60;;;;110676;1253;41143;-59
2022/02/14 02:37:20;;;;;;;17.50;7.30;;;;;-2.30;98155.40;;;;110699;1250;41410;-58
2022/02/14 02:39:51;;;;;;;19.70;7.70;;;;;-2.30;98154.40;;;;110575;1253;41157;-58
2022/02/14 02:42:25;;;;;;;16.10;6.80;;;;;-2.30;98146.60;;;;110368;1256;41276;-59
2022/02/14 02:44:55;;;;;;;15.10;6.50;;;;;-2.30;98149.20;;;;110073;1251;729324;-61
2022/02/14 02:47:27;;;;;;;15.30;6.70;;;;;-2.30;98144.80;;;;110592;1253;41169;-61
2022/02/14 02:49:57;;;;;;;18.10;8.20;;;;;-2.30;98145.80;;;;110634;1253;41146;-63
2022/02/14 02:52:28;;;;;;;18.60;8.70;;;;;-2.30;98143.80;;;;110522;1254;41140;-63
2022/02/14 02:54:59;;;;;;;19.60;8.20;;;;;-2.34;98145.00;;;;110693;1251;41255;-63
2022/02/14 02:57:31;;;;;;;17.80;8.40;;;;;-2.40;98146.20;;;;110740;1253;41707;-63
2022/02/14 03:00:02;;;;;;;17.00;7.80;;;;;-2.40;98143.20;;;;110585;1254;41417;-62
2022/02/14 03:02:33;;;;;;;17.10;7.30;;;;;-2.42;98144.20;;;;110627;1251;42392;-66
2022/02/14 03:05:04;;;;;;;;;;;;;-2.50;98144.20;;;;110675;1251;41372;-60
2022/02/14 03:07:35;;;;;;;17.40;7.90;;;;;-2.50;98145.40;;;;110704;1251;41248;-61
2022/02/14 03:10:05;;;;;;;16.90;7.90;;;;;-2.50;98146.20;;;;110658;1251;41924;-59
2022/02/14 03:12:36;;;;;;;16.60;6.70;;;;;-2.52;98143.40;;;;110474;1254;41372;-58
2022/02/14 03:15:06;;;;;;;16.00;6.90;;;;;-2.60;98152.20;;;;110460;1254;41518;-59
2022/02/14 03:17:36;;;;;;;15.70;6.90;;;;;-2.60;98147.00;;;;110649;1253;41205;-61
2022/02/14 03:20:07;;;;;;;17.60;7.20;;;;;-2.60;98147.40;;;;110566;1254;41162;-61
2022/02/14 03:22:36;;;;;;;;;;;;;-2.60;98146.00;;;;110520;1254;41711;-63
2022/02/14 03:25:07;;;;;;;14.00;6.60;;;;;-2.60;98145.20;;;;110595;1251;41246;-62
2022/02/14 03:27:38;;;;;;;15.70;7.20;;;;;-2.60;98146.40;;;;110641;1253;41196;-60
2022/02/14 03:30:09;;;;;;;16.50;7.60;;;;;-2.70;98141.20;;;;110626;1251;41143;-65
2022/02/14 03:32:40;;;;;;;15.50;7.90;;;;;-2.70;98137.80;;;;110565;1254;41248;-63
2022/02/14 03:35:10;;;;;;;17.30;7.70;;;;;-2.70;98139.00;;;;110665;1253;41418;-62
2022/02/14 03:37:40;;;;;;;17.10;7.50;;;;;-2.80;98147.80;;;;110763;1251;41144;-64
2022/02/14 03:40:11;;;;;;;16.20;7.80;;;;;-2.80;98142.00;;;;110770;1253;41401;-64
2022/02/14 03:42:41;;;;;;;;;;;;;-2.80;98146.20;;;;110661;1251;41264;-58
2022/02/14 03:45:12;;;;;;;21.10;8.30;;;;;-2.84;98142.60;;;;110744;1251;41216;-58
2022/02/14 03:47:43;;;;;;;16.30;7.10;;;;;-2.90;98140.80;;;;110648;1251;41436;-59
2022/02/14 03:50:13;;;;;;;13.90;7.20;;;;;-2.90;98136.40;;;;110826;1253;41259;-59
2022/02/14 03:52:42;;;;;;;16.60;7.50;;;;;-2.90;98139.00;;;;110671;1254;41152;-58
2022/02/14 03:55:12;;;;;;;15.40;7.00;;;;;-2.92;98138.60;;;;110761;1251;41173;-58
2022/02/14 03:57:43;;;;;;;17.10;7.40;;;;;-2.98;98133.00;;;;110806;1253;41504;-59
2022/02/14 04:00:15;;;;;;;15.00;7.30;;;;;-2.96;98133.40;;;;110683;1251;40742;-59
2022/02/14 04:02:45;;;;;;;17.60;7.60;;;;;-2.98;98128.40;;;;110694;1251;41152;-59
2022/02/14 04:05:17;;;;;;;17.10;7.40;;;;;-2.92;98131.40;;;;110476;1253;41734;-59
2022/02/14 04:07:47;;;;;;;18.20;7.70;;;;;-2.90;98130.00;;;;110678;1254;41491;-58
2022/02/14 04:10:18;;;;;;;17.60;7.80;;;;;-2.90;98125.60;;;;110620;1253;41298;-59
2022/02/14 04:12:48;;;;;;;15.30;6.40;;;;;-2.86;98128.60;;;;110591;1254;41631;-65
2022/02/14 04:15:18;;;;;;;18.20;7.50;;;;;-2.82;98129.80;;;;110588;1254;41685;-64
2022/02/14 04:17:48;;;;;;;18.00;7.80;;;;;-2.80;98126.80;;;;110583;1253;41153;-60
2022/02/14 04:20:18;;;;;;;19.20;7.20;;;;;-2.80;98120.20;;;;110577;1254;41149;-58
2022/02/14 04:22:48;;;;;;;21.00;7.80;;;;;-2.80;98118.20;;;;110574;1254;41349;-59
2022/02/14 04:25:18;;;;;;;19.60;7.80;;;;;-2.86;98122.40;;;;110396;1254;42113;-62
2022/02/14 04:27:47;;;;;;;19.80;8.60;;;;;-2.90;98113.40;;;;110535;1254;41141;-58
2022/02/14 04:30:17;;;;;;;19.20;8.60;;;;;-2.90;98114.20;;;;110646;1251;41227;-59
2022/02/14 04:32:47;;;;;;;21.20;8.90;;;;;-2.90;98114.00;;;;110611;1251;41826;-61
2022/02/14 04:35:16;;;;;;;19.20;8.80;;;;;-2.90;98113.40;;;;110580;1251;41154;-58
2022/02/14 04:37:46;;;;;;;18.20;8.50;;;;;-2.96;98115.20;;;;110741;1251;41165;-63
2022/02/14 04:40:16;;;;;;;18.30;8.60;;;;;-3.00;98118.80;;;;110719;1251;41661;-65
2022/02/14 04:42:45;;;;;;;19.60;8.30;;;;;-3.00;98116.00;;;;110533;1254;41618;-63
2022/02/14 04:45:15;;;;;;;18.80;7.90;;;;;-3.00;98115.80;;;;110664;1251;41637;-63
2022/02/14 04:47:45;;;;;;;16.70;7.80;;;;;-3.00;98120.40;;;;110778;1251;42443;-64
2022/02/14 04:50:15;;;;;;;17.40;7.70;;;;;-3.10;98120.80;;;;110653;1253;41148;-57
2022/02/14 04:52:44;;;;;;;19.10;8.20;;;;;-3.10;98109.80;;;;110797;1251;42376;-60
2022/02/14 04:55:14;;;;;;;15.00;6.90;;;;;-3.10;98120.60;;;;110728;1251;41160;-59
2022/02/14 04:57:44;;;;;;;15.70;7.40;;;;;-3.10;98118.20;;;;110671;1253;41568;-57
2022/02/14 05:00:15;;;;;;;16.70;6.50;;;;;-3.10;98125.60;;;;110679;1251;41328;-58
2022/02/14 05:02:45;;;;;;;14.00;6.50;;;;;-3.10;98124.00;;;;110596;1251;41257;-60
2022/02/14 05:05:18;;;;;;;13.70;6.10;;;;;-3.10;98121.60;;;;110506;1254;41195;-63
2022/02/14 05:07:50;;;;;;;13.20;5.90;;;;;-3.10;98120.80;;;;110740;1253;41175;-58
2022/02/14 05:10:20;;;;;;;14.80;6.50;;;;;-3.10;98122.60;;;;110731;1251;42345;-62
2022/02/14 05:12:49;;;;;;;16.70;6.70;;;;;-3.10;98117.80;;;;110445;1252;41981;-62
2022/02/14 05:15:19;;;;;;;15.00;6.20;;;;;-3.06;98120.20;;;;110623;1251;41264;-60
2022/02/14 05:17:49;;;;;;;16.30;6.50;;;;;-3.00;98118.00;;;;110496;1254;41162;-61
2022/02/14 05:20:18;;;;;;;17.50;6.70;;;;;-3.00;98119.20;;;;110592;1254;41446;-64
2022/02/14 05:22:48;;;;;;;15.60;7.00;;;;;-2.92;98120.60;;;;110553;1253;41265;-58
2022/02/14 05:25:18;;;;;;;16.10;7.20;;;;;-2.90;98128.20;;;;110637;1251;41269;-58
2022/02/14 05:27:47;;;;;;;17.60;7.90;;;;;-2.90;98124.20;;;;110491;1253;42081;-58
2022/02/14 05:30:20;;;;;;;14.60;6.70;;;;;-2.90;98129.40;;;;110442;1254;41316;-59
2022/02/14 05:32:49;;;;;;;17.80;8.00;;;;;-2.90;98134.40;;;;110469;1253;41608;-58
2022/02/14 05:35:19;;;;;;;16.70;7.60;;;;;-2.90;98136.80;;;;110739;1251;41302;-57
2022/02/14 05:37:49;;;;;;;15.10;6.90;;;;;-2.90;98138.20;;;;110514;1254;41155;-58
2022/02/14 05:40:19;;;;;;;15.40;7.10;;;;;-2.90;98140.60;;;;110562;1253;41182;-58
2022/02/14 05:42:49;;;;;;;13.60;6.40;;;;;-2.90;98137.40;;;;110514;1250;41148;-60
2022/02/14 05:45:19;;;;;;;15.00;6.60;;;;;-2.90;98144.40;;;;110718;1252;41601;-60
2022/02/14 05:47:48;;;;;;;14.90;6.40;;;;;-2.80;98145.60;;;;110831;1253;41546;-60
2022/02/14 05:50:17;;;;;;;16.70;7.10;;;;;-2.80;98143.60;;;;110743;1251;42552;-61
2022/02/14 05:52:47;;;;;;;16.60;7.00;;;;;-2.80;98137.80;;;;110770;1251;41155;-60
2022/02/14 05:55:18;;;;;;;15.50;7.70;;;;;-2.72;98143.20;;;;110796;1251;41171;-61
2022/02/14 05:57:48;;;;;;;16.30;7.40;;;;;-2.70;98139.60;;;;110785;1253;41144;-59
2022/02/14 06:00:18;;;;;;;;;;;;;-2.62;98141.40;;;;110770;1250;41147;-59
2022/02/14 06:02:48;;;;;;;19.00;8.20;;;;;-2.60;98143.20;;;;110499;1253;41173;-61
2022/02/14 06:05:20;;;;;;;17.90;8.30;;;;;-2.50;98147.40;;;;110822;1251;41156;-58
2022/02/14 06:07:49;;;;;;;20.80;8.60;;;;;-2.50;98150.60;;;;110381;1254;41929;-59
2022/02/14 06:10:19;;;;;;;19.50;8.30;;;;;-2.40;98149.20;;;;110580;1251;41262;-59
2022/02/14 06:12:48;;;;;;;20.40;9.20;;;;;-2.32;98148.20;;;;110746;1251;41671;-59
2022/02/14 06:15:18;;;;;;;17.80;8.10;;;;;-2.30;98146.60;;;;110772;1251;41909;-60
2022/02/14 06:17:47;;;;;;;15.80;7.70;;;;;-2.20;98150.60;;;;110581;1253;41164;-58
2022/02/14 06:20:17;;;;;;;18.20;8.30;;;;;-2.08;98148.40;;;;110770;1251;41849;-59
2022/02/14 06:22:46;;;;;;;19.20;8.40;;;;;-1.90;98142.00;;;;110747;1250;41212;-64
2022/02/14 06:25:15;;;;;;;18.20;8.10;;;;;-1.80;98140.60;;;;110717;1251;41421;-66
2022/02/14 06:27:45;;;;;;;17.70;8.70;;;;;-1.60;98146.20;;;;110582;1251;42818;-62
2022/02/14 06:30:14;;;;;;;18.90;8.10;;;;;-1.40;98140.80;;;;110542;1253;41160;-59
2022/02/14 06:32:44;;;;;;;17.30;8.00;;;;;-1.20;98139.40;;;;110740;1251;41155;-60
2022/02/14 06:35:13;;;;;;;17.90;8.10;;;;;-1.02;98138.20;;;;110731;1251;41169;-61
2022/02/14 06:37:43;;;;;;;17.00;7.50;;;;;-0.82;98134.20;;;;110733;1251;41239;-59
2022/02/14 06:40:13;;;;;;;22.30;9.70;;;;;-0.60;98136.20;;;;110758;1251;41917;-58
2022/02/14 06:42:47;;;;;;;24.90;11.40;;;;;-0.44;98134.40;;;;110740;1252;41483;-59
2022/02/14 06:45:18;;;;;;;24.80;11.30;;;;;-0.24;98125.20;;;;110688;1251;41643;-63
2022/02/14 06:47:51;;;;;;;25.30;10.30;;;;;0.00;98128.40;;;;110618;1251;41169;-61
2022/02/14 06:50:21;;;;;;;23.10;10.70;;;;;0.20;98133.00;;;;110559;1254;41265;-63
2022/02/14 06:52:50;;;;;;;22.30;10.00;;;;;0.40;98130.60;;;;110521;1253;41628;-61
2022/02/14 06:55:19;;;;;;;17.90;8.50;;;;;0.70;98126.20;;;;110633;1253;41582;-64
2022/02/14 06:57:49;;;;;;;20.00;9.30;;;;;0.90;98123.00;;;;110747;1251;43303;-61
2022/02/14 07:00:19;;;;;;;26.30;11.00;;;;;1.10;98115.20;;;;110731;1251;41853;-63
2022/02/14 07:02:48;;;;;;;28.60;12.60;;;;;1.30;98120.80;;;;110640;1253;41611;-58
2022/02/14 07:05:21;;;;;;;22.50;10.60;;;;;1.50;98119.20;;;;110674;1251;41183;-58
2022/02/14 07:07:51;;;;;;;19.40;9.20;;;;;1.70;98123.00;;;;110558;1253;42049;-59
2022/02/14 07:10:20;;;;;;;21.70;9.70;;;;;1.90;98121.60;;;;110623;1253;41277;-63
2022/02/14 07:12:49;;;;;;;31.30;12.50;;;;;2.10;98111.20;;;;110749;1251;41321;-59
2022/02/14 07:15:21;;;;;;;36.70;14.40;;;;;2.40;98108.60;;;;110567;1253;41607;-61
2022/02/14 07:17:52;;;;;;;39.70;15.90;;;;;2.64;98109.60;;;;110456;1253;41169;-60
2022/02/14 07:20:22;;;;;;;50.40;18.10;;;;;2.92;98100.60;;;;110722;1251;41472;-62
2022/02/14 07:22:52;;;;;;;43.20;16.50;;;;;3.20;98101.80;;;;110718;1251;41124;-61
2022/02/14 07:25:21;;;;;;;41.60;17.00;;;;;3.40;98103.20;;;;110765;1250;41177;-61
2022/02/14 07:27:51;;;;;;;37.00;17.30;;;;;3.60;98097.00;;;;110669;1251;41581;-64
2022/02/14 07:30:20;;;;;;;37.50;16.50;;;;;3.72;98089.00;;;;110664;1251;41187;-64
2022/02/14 07:32:50;;;;;;;36.50;15.30;;;;;3.70;98096.60;;;;110795;1251;41550;-64
2022/02/14 07:35:19;;;;;;;33.70;14.70;;;;;3.88;98090.60;;;;110796;1251;41214;-59
2022/02/14 07:37:48;;;;;;;28.20;13.10;;;;;4.00;98092.80;;;;110557;1253;41504;-60
2022/02/14 07:40:18;;;;;;;26.80;11.70;;;;;4.20;98088.80;;;;110566;1251;41647;-59
2022/02/14 07:42:51;;;;;;;23.80;12.10;;;;;4.50;98081.20;;;;110690;1251;42291;-62
2022/02/14 07:45:21;;;;;;;26.40;12.60;;;;;4.80;98077.20;;;;110592;1253;42000;-60
2022/02/14 07:47:51;;;;;;;26.10;12.60;;;;;5.00;98073.40;;;;110599;1251;42471;-59
2022/02/14 07:50:23;;;;;;;24.70;11.70;;;;;5.20;98073.80;;;;110331;1251;41253;-58
2022/02/14 07:52:54;;;;;;;24.40;11.50;;;;;5.40;98075.00;;;;110496;1253;41145;-60
2022/02/14 07:55:23;;;;;;;25.70;12.20;;;;;5.60;98074.60;;;;110685;1250;41674;-59
2022/02/14 07:57:53;;;;;;;26.40;12.20;;;;;5.80;98072.20;;;;110628;1251;41657;-58
2022/02/14 08:00:22;;;;;;;25.20;11.20;;;;;5.84;98063.80;;;;110574;1251;41438;-58
2022/02/14 08:02:51;;;;;;;30.40;12.00;;;;;6.00;98061.80;;;;110525;1253;42591;-58
2022/02/14 08:05:22;;;;;;;26.90;12.90;;;;;5.96;98062.00;;;;110629;1251;41304;-64
2022/02/14 08:08:00;;;;;;;23.10;9.80;;;;;6.00;98059.80;;;;110684;1251;41264;-63
2022/02/14 08:10:51;;;;;;;26.10;10.90;;;;;6.16;98057.00;;;;110508;1253;41280;-58
2022/02/14 08:13:22;;;;;;;21.70;10.70;;;;;6.06;98056.00;;;;110578;1253;41685;-61
2022/02/14 08:15:51;;;;;;;26.60;11.20;;;;;6.20;98053.40;;;;110463;1251;41557;-63
2022/02/14 08:18:21;;;;;;;21.10;10.30;;;;;6.20;98052.80;;;;110593;1251;41718;-62
2022/02/14 08:20:53;;;;;;;24.40;7.60;;;;;6.40;98049.80;;;;110422;1253;41595;-65
2022/02/14 08:23:22;;;;;;;16.20;7.50;;;;;6.70;98044.60;;;;110543;1253;41176;-61
2022/02/14 08:25:52;;;;;;;13.70;6.30;;;;;7.24;98041.00;;;;110576;1251;41168;-63
2022/02/14 08:28:24;;;;;;;14.10;5.40;;;;;7.94;98034.60;;;;110445;1251;41172;-59
2022/02/14 08:30:54;;;;;;;16.50;6.10;;;;;8.72;98022.40;;;;110597;1251;41152;-61
2022/02/14 08:33:23;;;;;;;18.70;5.80;;;;;9.52;98017.40;;;;110584;1251;41171;-62
2022/02/14 08:35:54;;;;;;;14.50;6.00;;;;;10.36;98005.40;;;;110575;1253;41254;-60
2022/02/14 08:38:23;;;;;;;13.80;6.10;;;;;11.36;98006.60;;;;110518;1253;41196;-59
2022/02/14 08:40:54;;;;;;;12.60;5.50;;;;;12.36;98000.20;;;;110597;1253;42391;-56
2022/02/14 08:43:23;;;;;;;12.00;4.90;;;;;13.22;97992.80;;;;110596;1251;41256;-65
2022/02/14 08:46:04;;;;;;;12.60;5.40;;;;;14.34;97989.20;;;;110600;1250;41160;-62
2022/02/14 08:48:33;;;;;;;11.70;5.00;;;;;15.62;97979.20;;;;110772;1252;41891;-61
2022/02/14 08:51:05;;;;;;;11.30;4.60;;;;;17.54;97964.60;;;;110676;1250;41249;-64
2022/02/14 08:53:37;;;;;;;10.10;4.50;;;;;19.68;97958.20;;;;110835;1251;42247;-65
2022/02/14 08:56:08;;;;;;;11.70;4.60;;;;;21.74;97948.40;;;;110699;1252;41742;-64
2022/02/14 08:58:40;;;;;;;10.60;4.50;;;;;23.74;97944.40;;;;110426;1254;41207;-64
2022/02/14 09:01:11;;;;;;;9.70;4.30;;;;;25.22;97943.80;;;;110518;1253;41264;-62
2022/02/14 09:03:42;;;;;;;15.70;4.70;;;;;26.52;97941.00;;;;110601;1253;41416;-66
2022/02/14 09:06:13;;;;;;;11.70;4.70;;;;;27.10;97934.40;;;;110410;1252;41412;-64
2022/02/14 09:08:44;;;;;;;10.50;4.30;;;;;26.74;97938.00;;;;110542;1251;41269;-67
2022/02/14 09:11:16;;;;;;;7.90;3.40;;;;;27.68;97940.20;;;;110507;1251;41160;-60
2022/02/14 09:13:49;;;;;;;11.00;4.30;;;;;29.00;97943.20;;;;110855;1250;41136;-66
2022/02/14 09:16:23;;;;;;;9.50;3.90;;;;;30.32;97940.20;;;;110467;1251;41267;-65
2022/02/14 09:18:58;;;;;;;9.70;3.50;;;;;30.52;97941.40;;;;110493;1250;41734;-59
2022/02/14 09:21:31;;;;;;;9.40;3.90;;;;;31.10;97937.80;;;;110516;1251;42685;-62
2022/02/14 09:24:05;;;;;;;8.70;3.60;;;;;30.90;97936.60;;;;110479;1253;41233;-59
2022/02/14 09:26:36;;;;;;;9.70;4.60;;;;;30.90;97936.20;;;;110603;1253;41173;-59
2022/02/14 09:29:10;;;;;;;9.10;3.80;;;;;31.26;97941.60;;;;110518;1253;41250;-69
2022/02/14 09:31:48;;;;;;;9.00;3.70;;;;;31.30;97940.80;;;;110629;1251;41302;-62
2022/02/14 09:34:23;;;;;;;10.30;4.10;;;;;31.00;97940.60;;;;110548;1253;41149;-65
2022/02/14 09:36:57;;;;;;;10.40;5.00;;;;;31.12;97939.00;;;;110527;1253;41208;-68
2022/02/14 09:39:30;;;;;;;9.00;4.10;;;;;30.92;97937.80;;;;110406;1253;41929;-66
2022/02/14 09:42:05;;;;;;;9.70;3.90;;;;;30.14;97939.00;;;;110366;1251;41422;-65
2022/02/14 09:44:47;;;;;;;9.00;4.10;;;;;30.00;97936.80;;;;110400;1254;41150;-64
2022/02/14 09:47:32;;;;;;;10.50;4.00;;;;;29.68;97937.60;;;;110477;1253;42008;-60
2022/02/14 09:50:12;;;;;;;9.30;4.00;;;;;29.40;97938.20;;;;110347;1253;41395;-61
2022/02/14 09:52:56;;;;;;;12.50;4.60;;;;;28.38;97938.20;;;;110425;1253;41168;-64
2022/02/14 09:55:34;;;;;;;9.50;4.10;;;;;26.78;97934.20;;;;110443;1251;41155;-67
2022/02/14 09:58:21;;;;;;;9.40;4.40;;;;;26.18;97936.40;;;;110729;1253;41366;-59
2022/02/14 10:00:55;;;;;;;11.50;4.50;;;;;25.40;97928.80;;;;110393;1253;42010;-59
2022/02/14 10:03:39;;;;;;;9.10;4.20;;;;;26.50;97926.80;;;;110736;1252;41569;-61
2022/02/14 10:06:46;;;;;;;9.60;4.10;;;;;27.64;97920.40;;;;110488;1253;41161;-61
2022/02/14 10:09:24;;;;;;;10.00;4.20;;;;;28.80;97911.20;;;;110509;1253;41161;-61
2022/02/14 10:12:15;;;;;;;10.30;4.30;;;;;29.72;97899.60;;;;110479;1251;41475;-62
2022/02/14 10:15:06;;;;;;;9.00;3.90;;;;;29.88;97891.00;;;;110616;1251;41619;-67
2022/02/14 10:17:42;;;;;;;9.90;4.10;;;;;31.18;97890.00;;;;110426;1252;42507;-65
2022/02/14 10:20:21;;;;;;;9.00;3.80;;;;;32.04;97888.40;;;;110388;1250;41156;-67
2022/02/14 10:23:07;;;;;;;9.90;4.40;;;;;32.68;97879.20;;;;110624;1253;41272;-60
2022/02/14 10:25:45;;;;;;;9.90;4.30;;;;;33.28;97869.60;;;;110356;1253;41185;-62
2022/02/14 10:28:31;;;;;;;;;;;;;;;;;;;;;
2022/02/14 10:31:05;;;;;;;9.10;4.00;;;;;34.62;97862.20;;;;110663;1251;41149;-66
2022/02/14 10:33:59;;;;;;;8.40;3.80;;;;;35.52;97856.20;;;;110471;1253;41153;-64
2022/02/14 10:36:38;;;;;;;9.30;4.00;;;;;36.98;97849.00;;;;110425;1252;42475;-63
2022/02/14 10:39:23;;;;;;;8.90;4.00;;;;;36.94;97853.00;;;;110939;1250;42365;-67
2022/02/14 10:42:04;;;;;;;9.90;4.20;;;;;34.18;97847.80;;;;110482;1253;41439;-67
2022/02/14 10:47:40;;;;;;;9.70;3.90;;;;;33.66;97843.80;;;;110512;1251;41259;-64
2022/02/14 10:50:15;;;;;;;9.30;3.80;;;;;33.90;97839.80;;;;110584;1251;41157;-68
2022/02/14 10:53:03;;;;;;;8.40;3.60;;;;;32.62;97839.60;;;;110508;1251;42015;-61
2022/02/14 10:55:42;;;;;;;8.30;3.40;;;;;33.00;97836.20;;;;110431;1251;41158;-61
2022/02/14 10:58:42;;;;;;;9.20;3.70;;;;;33.30;97830.20;;;;110527;1253;41142;-62
2022/02/14 11:01:29;;;;;;;8.80;4.10;;;;;34.54;97831.20;;;;110511;1251;41204;-68
2022/02/14 11:04:10;;;;;;;8.80;3.70;;;;;35.40;97822.40;;;;110406;1253;41170;-69
2022/02/14 11:06:49;;;;;;;9.80;4.00;;;;;36.22;97823.40;;;;110502;1253;41989;-64
2022/02/14 11:09:22;;;;;;;8.10;3.50;;;;;36.60;97815.60;;;;110422;1253;41265;-62
2022/02/14 11:11:53;;;;;;;8.30;3.60;;;;;36.68;97816.00;;;;110490;1253;41253;-62
2022/02/14 11:14:24;;;;;;;8.60;4.10;;;;;37.00;97810.20;;;;110600;1251;41158;-63
2022/02/14 11:17:00;;;;;;;10.00;4.10;;;;;37.20;97805.00;;;;110337;1251;42392;-58
2022/02/14 11:19:38;;;;;;;11.00;4.10;;;;;34.18;97805.20;;;;110505;1252;41168;-67
2022/02/14 11:22:11;;;;;;;8.80;3.70;;;;;34.26;97805.00;;;;110403;1251;41149;-60
2022/02/14 11:24:44;;;;;;;12.20;4.30;;;;;34.62;97803.20;;;;110594;1253;41203;-67
2022/02/14 11:27:24;;;;;;;10.60;3.90;;;;;35.18;97799.40;;;;110365;1251;41610;-68
2022/02/14 11:30:09;;;;;;;9.40;3.90;;;;;35.84;97793.80;;;;110495;1251;41328;-68
2022/02/14 11:33:19;;;;;;;8.50;3.80;;;;;36.64;97790.20;;;;110453;1252;41338;-68
2022/02/14 11:35:58;;;;;;;8.10;3.30;;;;;37.68;97783.20;;;;110448;1251;41253;-67
2022/02/14 11:38:50;;;;;;;8.20;3.60;;;;;38.06;97778.60;;;;110645;1251;41227;-60
2022/02/14 11:41:36;;;;;;;8.90;3.90;;;;;38.96;97775.80;;;;110445;1253;41173;-63
2022/02/14 11:44:21;;;;;;;8.60;3.90;;;;;39.60;97778.00;;;;110642;1251;41273;-59
2022/02/14 11:47:12;;;;;;;8.10;3.60;;;;;40.00;97774.60;;;;110366;1253;42137;-68
2022/02/14 11:49:52;;;;;;;8.60;3.50;;;;;39.70;97779.00;;;;110457;1251;41292;-66
2022/02/14 11:52:28;;;;;;;10.70;4.20;;;;;38.78;97776.00;;;;110396;1251;41280;-63
2022/02/14 11:59:13;;;;;;;8.70;3.70;;;;;33.40;97771.60;;;;110001;1260;41529;-71
2022/02/14 12:01:51;;;;;;;8.70;3.70;;;;;32.34;97774.40;;;;109983;1260;41163;-60
2022/02/14 12:04:30;;;;;;;11.50;3.90;;;;;30.92;97769.80;;;;110124;1258;41290;-60
2022/02/14 12:07:23;;;;;;;8.90;3.80;;;;;30.38;97771.60;;;;110076;1260;42060;-60
2022/02/14 12:09:58;;;;;;;9.10;4.00;;;;;30.20;97766.20;;;;110062;1261;41332;-60
2022/02/14 12:12:46;;;;;;;10.20;4.10;;;;;30.20;97766.40;;;;110057;1260;41182;-60
2022/02/14 12:21:15;;;;;;;10.10;3.90;;;;;31.48;97742.20;;;;110126;1258;41902;-62
2022/02/14 12:24:20;;;;;;;8.70;4.10;;;;;32.46;97746.20;;;;110139;1257;41869;-58
2022/02/14 12:26:52;;;;;;;9.80;3.90;;;;;32.28;97739.60;;;;109997;1257;41193;-61
2022/02/14 12:29:32;;;;;;;11.20;3.70;;;;;32.12;97744.80;;;;110132;1257;41179;-60
2022/02/14 12:32:14;;;;;;;8.10;3.60;;;;;32.10;97739.60;;;;110055;1260;41621;-60
2022/02/14 12:34:45;;;;;;;12.10;3.90;;;;;31.24;97741.20;;;;110153;1259;41283;-59
2022/02/14 12:37:16;;;;;;;8.80;3.70;;;;;30.36;97735.80;;;;110433;1255;41626;-59
2022/02/14 12:39:50;;;;;;;9.30;3.60;;;;;30.20;97732.00;;;;110435;1253;41160;-59
2022/02/14 12:42:25;;;;;;;9.40;4.00;;;;;30.86;97726.40;;;;110513;1251;41270;-60
2022/02/14 12:44:57;;;;;;;10.60;4.00;;;;;31.50;97732.80;;;;110676;1252;41136;-60
2022/02/14 12:47:28;;;;;;;9.50;3.90;;;;;31.60;97722.00;;;;110876;1250;41162;-60